sensor_id;sensor_type;location;lat;lon;timestamp;P1;durP1;ratioP1;P2;durP2;ratioP2
70951;SDS011;69214;55.880;37.542;2023-07-24T00:01:59;2.10;;;0.50;;
70951;SDS011;69214;55.880;37.542;2023-07-24T00:04:25;2.42;;;0.73;;
70951;SDS011;69214;55.880;37.542;2023-07-24T00:06:51;2.53;;;0.70;;
70951;SDS011;69214;55.880;37.542;2023-07-24T00:09:17;2.40;;;0.70;;
70951;SDS011;69214;55.880;37.542;2023-07-24T00:11:42;2.75;;;0.70;;
70951;SDS011;69214;55.880;37.542;2023-07-24T00:14:08;4.32;;;0.90;;
70951;SDS011;69214;55.880;37.542;2023-07-24T00:16:34;2.53;;;0.70;;
70951;SDS011;69214;55.880;37.542;2023-07-24T00:19:00;2.65;;;0.90;;
70951;SDS011;69214;55.880;37.542;2023-07-24T00:21:25;2.60;;;0.80;;
70951;SDS011;69214;55.880;37.542;2023-07-24T00:23:51;2.92;;;0.75;;
70951;SDS011;69214;55.880;37.542;2023-07-24T00:26:17;2.33;;;0.60;;
70951;SDS011;69214;55.880;37.542;2023-07-24T00:28:43;2.17;;;0.50;;
70951;SDS011;69214;55.880;37.542;2023-07-24T00:31:08;2.53;;;0.70;;
70951;SDS011;69214;55.880;37.542;2023-07-24T00:33:35;1.90;;;0.50;;
70951;SDS011;69214;55.880;37.542;2023-07-24T00:36:01;2.93;;;0.60;;
70951;SDS011;69214;55.880;37.542;2023-07-24T00:38:27;4.65;;;0.85;;
70951;SDS011;69214;55.880;37.542;2023-07-24T00:40:53;2.35;;;0.65;;
70951;SDS011;69214;55.880;37.542;2023-07-24T00:43:19;1.85;;;0.50;;
70951;SDS011;69214;55.880;37.542;2023-07-24T00:45:45;2.30;;;0.63;;
70951;SDS011;69214;55.880;37.542;2023-07-24T00:48:14;3.90;;;0.75;;
70951;SDS011;69214;55.880;37.542;2023-07-24T00:50:42;3.38;;;0.70;;
70951;SDS011;69214;55.880;37.542;2023-07-24T00:53:09;4.20;;;0.70;;
70951;SDS011;69214;55.880;37.542;2023-07-24T00:55:37;2.10;;;0.63;;
70951;SDS011;69214;55.880;37.542;2023-07-24T00:58:03;5.30;;;0.70;;
70951;SDS011;69214;55.880;37.542;2023-07-24T01:00:30;2.20;;;0.70;;
70951;SDS011;69214;55.880;37.542;2023-07-24T01:02:56;1.90;;;0.60;;
70951;SDS011;69214;55.880;37.542;2023-07-24T01:05:25;2.35;;;0.70;;
70951;SDS011;69214;55.880;37.542;2023-07-24T01:07:54;3.17;;;1.10;;
70951;SDS011;69214;55.880;37.542;2023-07-24T01:10:20;2.87;;;0.63;;
70951;SDS011;69214;55.880;37.542;2023-07-24T01:15:26;3.35;;;0.70;;
70951;SDS011;69214;55.880;37.542;2023-07-24T01:18:10;2.55;;;0.50;;
70951;SDS011;69214;55.880;37.542;2023-07-24T01:20:48;1.90;;;0.50;;
70951;SDS011;69214;55.880;37.542;2023-07-24T01:25:56;2.60;;;0.88;;
70951;SDS011;69214;55.880;37.542;2023-07-24T01:28:28;2.80;;;0.60;;
70951;SDS011;69214;55.880;37.542;2023-07-24T01:30:55;3.17;;;0.73;;
70951;SDS011;69214;55.880;37.542;2023-07-24T01:33:21;3.22;;;1.00;;
70951;SDS011;69214;55.880;37.542;2023-07-24T01:35:48;2.90;;;0.70;;
70951;SDS011;69214;55.880;37.542;2023-07-24T01:38:19;2.53;;;0.73;;
70951;SDS011;69214;55.880;37.542;2023-07-24T01:40:46;2.97;;;0.80;;
70951;SDS011;69214;55.880;37.542;2023-07-24T01:43:14;5.20;;;0.70;;
70951;SDS011;69214;55.880;37.542;2023-07-24T01:45:40;3.25;;;0.68;;
70951;SDS011;69214;55.880;37.542;2023-07-24T01:48:06;2.57;;;0.90;;
70951;SDS011;69214;55.880;37.542;2023-07-24T01:50:32;2.22;;;0.60;;
70951;SDS011;69214;55.880;37.542;2023-07-24T01:52:58;4.40;;;1.05;;
70951;SDS011;69214;55.880;37.542;2023-07-24T01:55:24;3.53;;;0.68;;
70951;SDS011;69214;55.880;37.542;2023-07-24T01:57:50;2.37;;;0.70;;
70951;SDS011;69214;55.880;37.542;2023-07-24T02:00:16;2.25;;;0.70;;
70951;SDS011;69214;55.880;37.542;2023-07-24T02:02:42;2.05;;;0.60;;
70951;SDS011;69214;55.880;37.542;2023-07-24T02:05:07;2.20;;;0.57;;
70951;SDS011;69214;55.880;37.542;2023-07-24T02:07:34;5.63;;;0.80;;
70951;SDS011;69214;55.880;37.542;2023-07-24T02:10:00;2.22;;;0.75;;
70951;SDS011;69214;55.880;37.542;2023-07-24T02:12:26;2.10;;;0.50;;
70951;SDS011;69214;55.880;37.542;2023-07-24T02:14:52;2.42;;;0.65;;
70951;SDS011;69214;55.880;37.542;2023-07-24T02:17:19;4.40;;;0.60;;
70951;SDS011;69214;55.880;37.542;2023-07-24T02:19:45;2.50;;;0.60;;
70951;SDS011;69214;55.880;37.542;2023-07-24T02:22:11;3.28;;;0.70;;
70951;SDS011;69214;55.880;37.542;2023-07-24T02:24:37;1.98;;;0.60;;
70951;SDS011;69214;55.880;37.542;2023-07-24T02:27:04;2.30;;;0.60;;
70951;SDS011;69214;55.880;37.542;2023-07-24T02:29:31;2.20;;;0.68;;
70951;SDS011;69214;55.880;37.542;2023-07-24T02:31:58;2.75;;;0.70;;
70951;SDS011;69214;55.880;37.542;2023-07-24T02:34:24;2.28;;;0.50;;
70951;SDS011;69214;55.880;37.542;2023-07-24T02:36:52;2.33;;;0.60;;
70951;SDS011;69214;55.880;37.542;2023-07-24T02:39:19;3.10;;;0.70;;
70951;SDS011;69214;55.880;37.542;2023-07-24T02:41:47;2.10;;;0.60;;
70951;SDS011;69214;55.880;37.542;2023-07-24T02:44:13;2.35;;;0.60;;
70951;SDS011;69214;55.880;37.542;2023-07-24T02:46:40;1.58;;;0.50;;
70951;SDS011;69214;55.880;37.542;2023-07-24T02:49:07;2.85;;;0.50;;
70951;SDS011;69214;55.880;37.542;2023-07-24T02:51:33;3.87;;;0.60;;
70951;SDS011;69214;55.880;37.542;2023-07-24T02:53:59;2.60;;;0.80;;
70951;SDS011;69214;55.880;37.542;2023-07-24T02:56:25;3.25;;;0.70;;
70951;SDS011;69214;55.880;37.542;2023-07-24T02:58:51;2.60;;;0.75;;
70951;SDS011;69214;55.880;37.542;2023-07-24T03:01:17;3.15;;;0.60;;
70951;SDS011;69214;55.880;37.542;2023-07-24T03:03:43;3.10;;;0.60;;
70951;SDS011;69214;55.880;37.542;2023-07-24T03:06:09;2.50;;;0.45;;
70951;SDS011;69214;55.880;37.542;2023-07-24T03:08:35;1.30;;;0.40;;
70951;SDS011;69214;55.880;37.542;2023-07-24T03:11:04;1.48;;;0.40;;
70951;SDS011;69214;55.880;37.542;2023-07-24T03:13:31;3.03;;;0.70;;
70951;SDS011;69214;55.880;37.542;2023-07-24T03:15:57;1.27;;;0.50;;
70951;SDS011;69214;55.880;37.542;2023-07-24T03:18:24;1.17;;;0.40;;
70951;SDS011;69214;55.880;37.542;2023-07-24T03:20:51;1.92;;;0.50;;
70951;SDS011;69214;55.880;37.542;2023-07-24T03:23:16;1.55;;;0.45;;
70951;SDS011;69214;55.880;37.542;2023-07-24T03:25:43;1.03;;;0.40;;
70951;SDS011;69214;55.880;37.542;2023-07-24T03:28:09;1.60;;;0.40;;
70951;SDS011;69214;55.880;37.542;2023-07-24T03:30:35;1.77;;;0.35;;
70951;SDS011;69214;55.880;37.542;2023-07-24T03:33:01;1.42;;;0.43;;
70951;SDS011;69214;55.880;37.542;2023-07-24T03:35:30;2.20;;;0.60;;
70951;SDS011;69214;55.880;37.542;2023-07-24T03:37:56;1.93;;;0.53;;
70951;SDS011;69214;55.880;37.542;2023-07-24T03:40:22;1.75;;;0.47;;
70951;SDS011;69214;55.880;37.542;2023-07-24T03:42:48;2.33;;;0.70;;
70951;SDS011;69214;55.880;37.542;2023-07-24T03:45:15;1.10;;;0.40;;
70951;SDS011;69214;55.880;37.542;2023-07-24T03:47:41;2.13;;;0.50;;
70951;SDS011;69214;55.880;37.542;2023-07-24T03:50:07;3.70;;;0.60;;
70951;SDS011;69214;55.880;37.542;2023-07-24T03:52:34;1.98;;;0.60;;
70951;SDS011;69214;55.880;37.542;2023-07-24T03:55:01;3.13;;;0.50;;
70951;SDS011;69214;55.880;37.542;2023-07-24T03:57:30;2.30;;;0.40;;
70951;SDS011;69214;55.880;37.542;2023-07-24T03:59:56;2.83;;;0.50;;
70951;SDS011;69214;55.880;37.542;2023-07-24T04:02:22;2.05;;;0.50;;
70951;SDS011;69214;55.880;37.542;2023-07-24T04:04:49;1.98;;;0.60;;
70951;SDS011;69214;55.880;37.542;2023-07-24T04:07:15;1.33;;;0.50;;
70951;SDS011;69214;55.880;37.542;2023-07-24T04:09:40;2.08;;;0.50;;
70951;SDS011;69214;55.880;37.542;2023-07-24T04:12:06;3.37;;;0.50;;
70951;SDS011;69214;55.880;37.542;2023-07-24T04:14:32;1.02;;;0.43;;
70951;SDS011;69214;55.880;37.542;2023-07-24T04:16:58;4.10;;;0.65;;
70951;SDS011;69214;55.880;37.542;2023-07-24T04:19:24;1.00;;;0.40;;
70951;SDS011;69214;55.880;37.542;2023-07-24T04:21:49;1.42;;;0.50;;
70951;SDS011;69214;55.880;37.542;2023-07-24T04:24:15;1.60;;;0.60;;
70951;SDS011;69214;55.880;37.542;2023-07-24T04:26:41;1.40;;;0.40;;
70951;SDS011;69214;55.880;37.542;2023-07-24T04:29:07;2.35;;;0.50;;
70951;SDS011;69214;55.880;37.542;2023-07-24T04:31:33;1.90;;;0.40;;
70951;SDS011;69214;55.880;37.542;2023-07-24T04:33:59;3.83;;;0.53;;
70951;SDS011;69214;55.880;37.542;2023-07-24T04:36:25;4.30;;;0.70;;
70951;SDS011;69214;55.880;37.542;2023-07-24T04:38:51;2.60;;;0.60;;
70951;SDS011;69214;55.880;37.542;2023-07-24T04:41:16;1.33;;;0.50;;
70951;SDS011;69214;55.880;37.542;2023-07-24T04:43:42;1.77;;;0.52;;
70951;SDS011;69214;55.880;37.542;2023-07-24T04:46:08;2.60;;;0.83;;
70951;SDS011;69214;55.880;37.542;2023-07-24T04:48:34;1.27;;;0.40;;
70951;SDS011;69214;55.880;37.542;2023-07-24T04:51:00;1.40;;;0.50;;
70951;SDS011;69214;55.880;37.542;2023-07-24T04:53:26;2.90;;;0.60;;
70951;SDS011;69214;55.880;37.542;2023-07-24T04:55:51;1.52;;;0.47;;
70951;SDS011;69214;55.880;37.542;2023-07-24T04:58:17;2.67;;;0.75;;
70951;SDS011;69214;55.880;37.542;2023-07-24T05:00:43;1.90;;;0.60;;
70951;SDS011;69214;55.880;37.542;2023-07-24T05:03:09;1.58;;;0.43;;
70951;SDS011;69214;55.880;37.542;2023-07-24T05:05:37;2.42;;;0.43;;
70951;SDS011;69214;55.880;37.542;2023-07-24T05:08:03;2.20;;;0.60;;
70951;SDS011;69214;55.880;37.542;2023-07-24T05:10:29;2.05;;;0.40;;
70951;SDS011;69214;55.880;37.542;2023-07-24T05:13:00;2.47;;;0.60;;
70951;SDS011;69214;55.880;37.542;2023-07-24T05:15:26;3.20;;;0.60;;
70951;SDS011;69214;55.880;37.542;2023-07-24T05:17:52;2.28;;;0.75;;
70951;SDS011;69214;55.880;37.542;2023-07-24T05:20:18;1.50;;;0.60;;
70951;SDS011;69214;55.880;37.542;2023-07-24T05:22:44;1.40;;;0.50;;
70951;SDS011;69214;55.880;37.542;2023-07-24T05:25:10;1.48;;;0.50;;
70951;SDS011;69214;55.880;37.542;2023-07-24T05:27:36;2.63;;;0.73;;
70951;SDS011;69214;55.880;37.542;2023-07-24T05:30:03;1.98;;;0.50;;
70951;SDS011;69214;55.880;37.542;2023-07-24T05:32:31;1.52;;;0.65;;
70951;SDS011;69214;55.880;37.542;2023-07-24T05:34:56;2.38;;;0.50;;
70951;SDS011;69214;55.880;37.542;2023-07-24T05:37:22;1.90;;;0.60;;
70951;SDS011;69214;55.880;37.542;2023-07-24T05:39:48;1.85;;;0.60;;
70951;SDS011;69214;55.880;37.542;2023-07-24T05:42:14;2.30;;;0.80;;
70951;SDS011;69214;55.880;37.542;2023-07-24T05:44:39;2.30;;;0.90;;
70951;SDS011;69214;55.880;37.542;2023-07-24T05:47:05;3.60;;;0.50;;
70951;SDS011;69214;55.880;37.542;2023-07-24T05:49:31;2.97;;;0.60;;
70951;SDS011;69214;55.880;37.542;2023-07-24T05:51:57;1.42;;;0.40;;
70951;SDS011;69214;55.880;37.542;2023-07-24T05:54:22;2.77;;;0.50;;
70951;SDS011;69214;55.880;37.542;2023-07-24T05:56:48;2.05;;;0.43;;
70951;SDS011;69214;55.880;37.542;2023-07-24T05:59:14;3.00;;;0.43;;
70951;SDS011;69214;55.880;37.542;2023-07-24T06:01:40;1.87;;;0.40;;
70951;SDS011;69214;55.880;37.542;2023-07-24T06:04:06;2.03;;;0.60;;
70951;SDS011;69214;55.880;37.542;2023-07-24T06:06:32;2.72;;;0.43;;
70951;SDS011;69214;55.880;37.542;2023-07-24T06:08:59;2.95;;;0.60;;
70951;SDS011;69214;55.880;37.542;2023-07-24T06:11:25;2.57;;;0.40;;
70951;SDS011;69214;55.880;37.542;2023-07-24T06:13:52;2.95;;;0.60;;
70951;SDS011;69214;55.880;37.542;2023-07-24T06:16:18;2.63;;;0.45;;
70951;SDS011;69214;55.880;37.542;2023-07-24T06:18:44;3.85;;;0.50;;
70951;SDS011;69214;55.880;37.542;2023-07-24T06:21:10;3.03;;;0.60;;
70951;SDS011;69214;55.880;37.542;2023-07-24T06:23:36;1.90;;;0.50;;
70951;SDS011;69214;55.880;37.542;2023-07-24T06:26:02;1.15;;;0.40;;
70951;SDS011;69214;55.880;37.542;2023-07-24T06:28:28;1.27;;;0.30;;
70951;SDS011;69214;55.880;37.542;2023-07-24T06:30:54;1.35;;;0.50;;
70951;SDS011;69214;55.880;37.542;2023-07-24T06:33:20;2.83;;;0.40;;
70951;SDS011;69214;55.880;37.542;2023-07-24T06:35:49;2.97;;;0.35;;
70951;SDS011;69214;55.880;37.542;2023-07-24T06:38:16;1.30;;;0.30;;
70951;SDS011;69214;55.880;37.542;2023-07-24T06:40:42;2.08;;;0.30;;
70951;SDS011;69214;55.880;37.542;2023-07-24T06:43:08;1.57;;;0.33;;
70951;SDS011;69214;55.880;37.542;2023-07-24T06:45:34;3.63;;;0.40;;
70951;SDS011;69214;55.880;37.542;2023-07-24T06:48:00;1.33;;;0.30;;
70951;SDS011;69214;55.880;37.542;2023-07-24T06:50:25;1.17;;;0.40;;
70951;SDS011;69214;55.880;37.542;2023-07-24T06:52:51;1.98;;;0.45;;
70951;SDS011;69214;55.880;37.542;2023-07-24T06:55:19;2.45;;;0.45;;
70951;SDS011;69214;55.880;37.542;2023-07-24T06:57:45;2.35;;;0.40;;
70951;SDS011;69214;55.880;37.542;2023-07-24T07:00:11;2.43;;;0.40;;
70951;SDS011;69214;55.880;37.542;2023-07-24T07:02:38;1.40;;;0.30;;
70951;SDS011;69214;55.880;37.542;2023-07-24T07:05:04;1.92;;;0.30;;
70951;SDS011;69214;55.880;37.542;2023-07-24T07:07:31;1.38;;;0.30;;
70951;SDS011;69214;55.880;37.542;2023-07-24T07:09:57;3.77;;;0.40;;
70951;SDS011;69214;55.880;37.542;2023-07-24T07:12:36;1.60;;;0.30;;
70951;SDS011;69214;55.880;37.542;2023-07-24T07:15:02;0.90;;;0.20;;
70951;SDS011;69214;55.880;37.542;2023-07-24T07:17:31;1.65;;;0.38;;
70951;SDS011;69214;55.880;37.542;2023-07-24T07:19:56;1.90;;;0.30;;
70951;SDS011;69214;55.880;37.542;2023-07-24T07:22:22;2.42;;;0.30;;
70951;SDS011;69214;55.880;37.542;2023-07-24T07:24:48;2.83;;;0.40;;
70951;SDS011;69214;55.880;37.542;2023-07-24T07:27:14;2.10;;;0.47;;
70951;SDS011;69214;55.880;37.542;2023-07-24T07:29:43;2.23;;;0.33;;
70951;SDS011;69214;55.880;37.542;2023-07-24T07:32:09;2.85;;;0.30;;
70951;SDS011;69214;55.880;37.542;2023-07-24T07:34:35;1.63;;;0.28;;
70951;SDS011;69214;55.880;37.542;2023-07-24T07:37:02;1.70;;;0.45;;
70951;SDS011;69214;55.880;37.542;2023-07-24T07:39:27;1.97;;;0.20;;
70951;SDS011;69214;55.880;37.542;2023-07-24T07:41:53;2.58;;;0.32;;
70951;SDS011;69214;55.880;37.542;2023-07-24T07:44:19;1.00;;;0.20;;
70951;SDS011;69214;55.880;37.542;2023-07-24T07:46:45;1.37;;;0.30;;
70951;SDS011;69214;55.880;37.542;2023-07-24T07:49:11;1.40;;;0.40;;
70951;SDS011;69214;55.880;37.542;2023-07-24T07:51:37;1.75;;;0.38;;
70951;SDS011;69214;55.880;37.542;2023-07-24T07:54:03;2.10;;;0.40;;
70951;SDS011;69214;55.880;37.542;2023-07-24T07:56:29;2.43;;;0.40;;
70951;SDS011;69214;55.880;37.542;2023-07-24T07:58:55;1.23;;;0.30;;
70951;SDS011;69214;55.880;37.542;2023-07-24T08:01:21;1.13;;;0.30;;
70951;SDS011;69214;55.880;37.542;2023-07-24T08:03:47;1.77;;;0.40;;
70951;SDS011;69214;55.880;37.542;2023-07-24T08:06:13;1.90;;;0.30;;
70951;SDS011;69214;55.880;37.542;2023-07-24T08:11:33;1.85;;;0.40;;
70951;SDS011;69214;55.880;37.542;2023-07-24T08:13:59;1.63;;;0.40;;
70951;SDS011;69214;55.880;37.542;2023-07-24T08:16:25;1.70;;;0.33;;
70951;SDS011;69214;55.880;37.542;2023-07-24T08:18:50;1.02;;;0.30;;
70951;SDS011;69214;55.880;37.542;2023-07-24T08:21:16;2.20;;;0.35;;
70951;SDS011;69214;55.880;37.542;2023-07-24T08:23:42;2.33;;;0.50;;
70951;SDS011;69214;55.880;37.542;2023-07-24T08:26:09;3.22;;;0.80;;
70951;SDS011;69214;55.880;37.542;2023-07-24T08:28:34;1.63;;;0.50;;
70951;SDS011;69214;55.880;37.542;2023-07-24T08:31:01;2.40;;;0.40;;
70951;SDS011;69214;55.880;37.542;2023-07-24T08:33:28;1.63;;;0.30;;
70951;SDS011;69214;55.880;37.542;2023-07-24T08:36:02;1.00;;;0.40;;
70951;SDS011;69214;55.880;37.542;2023-07-24T08:38:31;2.65;;;0.50;;
70951;SDS011;69214;55.880;37.542;2023-07-24T08:41:01;3.40;;;0.45;;
70951;SDS011;69214;55.880;37.542;2023-07-24T08:43:28;1.77;;;0.40;;
70951;SDS011;69214;55.880;37.542;2023-07-24T08:45:56;2.00;;;0.40;;
70951;SDS011;69214;55.880;37.542;2023-07-24T08:48:24;2.80;;;0.30;;
70951;SDS011;69214;55.880;37.542;2023-07-24T08:50:52;1.48;;;0.40;;
70951;SDS011;69214;55.880;37.542;2023-07-24T08:53:19;1.65;;;0.35;;
70951;SDS011;69214;55.880;37.542;2023-07-24T08:55:47;2.75;;;0.32;;
70951;SDS011;69214;55.880;37.542;2023-07-24T08:58:18;2.58;;;0.40;;
70951;SDS011;69214;55.880;37.542;2023-07-24T09:00:43;1.60;;;0.33;;
70951;SDS011;69214;55.880;37.542;2023-07-24T09:03:09;1.15;;;0.30;;
70951;SDS011;69214;55.880;37.542;2023-07-24T09:05:36;1.25;;;0.32;;
70951;SDS011;69214;55.880;37.542;2023-07-24T09:08:01;3.03;;;0.50;;
70951;SDS011;69214;55.880;37.542;2023-07-24T09:10:27;1.75;;;0.40;;
70951;SDS011;69214;55.880;37.542;2023-07-24T09:12:54;2.60;;;0.32;;
70951;SDS011;69214;55.880;37.542;2023-07-24T09:15:19;5.82;;;0.50;;
70951;SDS011;69214;55.880;37.542;2023-07-24T09:17:52;2.13;;;0.40;;
70951;SDS011;69214;55.880;37.542;2023-07-24T09:20:19;2.25;;;0.50;;
70951;SDS011;69214;55.880;37.542;2023-07-24T09:22:52;2.50;;;0.70;;
70951;SDS011;69214;55.880;37.542;2023-07-24T09:25:29;1.98;;;0.40;;
70951;SDS011;69214;55.880;37.542;2023-07-24T09:27:59;1.98;;;0.70;;
70951;SDS011;69214;55.880;37.542;2023-07-24T09:30:25;2.47;;;0.53;;
70951;SDS011;69214;55.880;37.542;2023-07-24T09:32:53;2.40;;;0.73;;
70951;SDS011;69214;55.880;37.542;2023-07-24T09:35:20;2.95;;;0.70;;
70951;SDS011;69214;55.880;37.542;2023-07-24T09:38:05;1.90;;;0.60;;
70951;SDS011;69214;55.880;37.542;2023-07-24T09:43:18;3.07;;;0.80;;
70951;SDS011;69214;55.880;37.542;2023-07-24T09:45:44;4.55;;;0.80;;
70951;SDS011;69214;55.880;37.542;2023-07-24T09:48:12;4.13;;;0.60;;
70951;SDS011;69214;55.880;37.542;2023-07-24T09:50:41;1.50;;;0.57;;
70951;SDS011;69214;55.880;37.542;2023-07-24T09:53:18;4.43;;;0.75;;
70951;SDS011;69214;55.880;37.542;2023-07-24T09:56:08;6.23;;;1.00;;
70951;SDS011;69214;55.880;37.542;2023-07-24T09:58:37;3.85;;;0.90;;
70951;SDS011;69214;55.880;37.542;2023-07-24T10:01:07;1.95;;;0.63;;
70951;SDS011;69214;55.880;37.542;2023-07-24T10:03:40;6.07;;;0.77;;
70951;SDS011;69214;55.880;37.542;2023-07-24T10:06:12;4.50;;;0.93;;
70951;SDS011;69214;55.880;37.542;2023-07-24T10:08:40;3.50;;;0.70;;
70951;SDS011;69214;55.880;37.542;2023-07-24T10:11:13;3.80;;;0.68;;
70951;SDS011;69214;55.880;37.542;2023-07-24T10:13:41;2.13;;;0.70;;
70951;SDS011;69214;55.880;37.542;2023-07-24T10:16:07;3.63;;;0.88;;
70951;SDS011;69214;55.880;37.542;2023-07-24T10:18:34;2.97;;;0.80;;
70951;SDS011;69214;55.880;37.542;2023-07-24T10:21:07;2.30;;;0.60;;
70951;SDS011;69214;55.880;37.542;2023-07-24T10:23:41;2.22;;;0.50;;
70951;SDS011;69214;55.880;37.542;2023-07-24T10:26:09;2.53;;;0.50;;
70951;SDS011;69214;55.880;37.542;2023-07-24T10:28:36;3.15;;;0.75;;
70951;SDS011;69214;55.880;37.542;2023-07-24T10:31:05;3.28;;;0.52;;
70951;SDS011;69214;55.880;37.542;2023-07-24T10:33:36;2.73;;;0.60;;
70951;SDS011;69214;55.880;37.542;2023-07-24T10:36:09;3.00;;;0.60;;
70951;SDS011;69214;55.880;37.542;2023-07-24T10:38:37;4.18;;;0.70;;
70951;SDS011;69214;55.880;37.542;2023-07-24T10:41:05;2.08;;;0.70;;
70951;SDS011;69214;55.880;37.542;2023-07-24T10:43:43;2.60;;;0.70;;
70951;SDS011;69214;55.880;37.542;2023-07-24T10:46:11;3.97;;;0.80;;
70951;SDS011;69214;55.880;37.542;2023-07-24T10:48:38;2.15;;;0.60;;
70951;SDS011;69214;55.880;37.542;2023-07-24T10:51:09;3.47;;;0.60;;
70951;SDS011;69214;55.880;37.542;2023-07-24T10:53:36;1.98;;;0.60;;
70951;SDS011;69214;55.880;37.542;2023-07-24T10:56:06;3.78;;;0.50;;
70951;SDS011;69214;55.880;37.542;2023-07-24T10:58:32;2.03;;;0.60;;
70951;SDS011;69214;55.880;37.542;2023-07-24T11:01:03;3.13;;;0.70;;
70951;SDS011;69214;55.880;37.542;2023-07-24T11:03:30;3.40;;;0.43;;
70951;SDS011;69214;55.880;37.542;2023-07-24T11:05:57;1.83;;;0.50;;
70951;SDS011;69214;55.880;37.542;2023-07-24T11:08:24;2.30;;;0.70;;
70951;SDS011;69214;55.880;37.542;2023-07-24T11:10:51;3.23;;;0.60;;
70951;SDS011;69214;55.880;37.542;2023-07-24T11:13:20;3.92;;;0.50;;
70951;SDS011;69214;55.880;37.542;2023-07-24T11:15:48;3.72;;;0.40;;
70951;SDS011;69214;55.880;37.542;2023-07-24T11:18:15;2.10;;;0.55;;
70951;SDS011;69214;55.880;37.542;2023-07-24T11:20:45;3.38;;;0.95;;
70951;SDS011;69214;55.880;37.542;2023-07-24T11:23:15;3.87;;;0.70;;
70951;SDS011;69214;55.880;37.542;2023-07-24T11:25:41;2.38;;;0.70;;
70951;SDS011;69214;55.880;37.542;2023-07-24T11:28:08;2.55;;;0.60;;
70951;SDS011;69214;55.880;37.542;2023-07-24T11:30:35;2.72;;;0.90;;
70951;SDS011;69214;55.880;37.542;2023-07-24T11:33:02;6.65;;;0.98;;
70951;SDS011;69214;55.880;37.542;2023-07-24T11:35:30;5.73;;;0.83;;
70951;SDS011;69214;55.880;37.542;2023-07-24T11:37:56;3.47;;;0.80;;
70951;SDS011;69214;55.880;37.542;2023-07-24T11:40:30;2.63;;;0.50;;
70951;SDS011;69214;55.880;37.542;2023-07-24T11:43:14;2.67;;;0.70;;
70951;SDS011;69214;55.880;37.542;2023-07-24T11:45:45;3.88;;;1.00;;
70951;SDS011;69214;55.880;37.542;2023-07-24T11:48:18;4.67;;;0.70;;
70951;SDS011;69214;55.880;37.542;2023-07-24T11:50:47;5.18;;;0.98;;
70951;SDS011;69214;55.880;37.542;2023-07-24T11:53:20;2.28;;;0.68;;
70951;SDS011;69214;55.880;37.542;2023-07-24T11:55:48;2.83;;;0.90;;
70951;SDS011;69214;55.880;37.542;2023-07-24T11:58:15;6.32;;;0.90;;
70951;SDS011;69214;55.880;37.542;2023-07-24T12:00:41;4.27;;;0.80;;
70951;SDS011;69214;55.880;37.542;2023-07-24T12:03:07;2.95;;;0.95;;
70951;SDS011;69214;55.880;37.542;2023-07-24T12:05:40;3.90;;;1.13;;
70951;SDS011;69214;55.880;37.542;2023-07-24T12:08:07;3.67;;;1.10;;
70951;SDS011;69214;55.880;37.542;2023-07-24T12:10:35;5.20;;;0.90;;
70951;SDS011;69214;55.880;37.542;2023-07-24T12:13:02;3.38;;;0.88;;
70951;SDS011;69214;55.880;37.542;2023-07-24T12:15:28;3.38;;;1.02;;
70951;SDS011;69214;55.880;37.542;2023-07-24T12:17:54;3.30;;;0.80;;
70951;SDS011;69214;55.880;37.542;2023-07-24T12:20:22;3.25;;;1.02;;
70951;SDS011;69214;55.880;37.542;2023-07-24T12:22:48;3.47;;;0.80;;
70951;SDS011;69214;55.880;37.542;2023-07-24T12:25:14;5.93;;;0.70;;
70951;SDS011;69214;55.880;37.542;2023-07-24T12:27:41;4.95;;;1.10;;
70951;SDS011;69214;55.880;37.542;2023-07-24T12:30:08;3.20;;;0.88;;
70951;SDS011;69214;55.880;37.542;2023-07-24T12:32:34;3.50;;;1.00;;
70951;SDS011;69214;55.880;37.542;2023-07-24T12:35:00;2.20;;;0.73;;
70951;SDS011;69214;55.880;37.542;2023-07-24T12:37:26;5.05;;;0.80;;
70951;SDS011;69214;55.880;37.542;2023-07-24T12:39:52;4.78;;;1.15;;
70951;SDS011;69214;55.880;37.542;2023-07-24T12:42:18;4.50;;;1.00;;
70951;SDS011;69214;55.880;37.542;2023-07-24T12:44:44;5.00;;;0.90;;
70951;SDS011;69214;55.880;37.542;2023-07-24T12:47:10;2.92;;;0.90;;
70951;SDS011;69214;55.880;37.542;2023-07-24T12:49:37;3.33;;;0.77;;
70951;SDS011;69214;55.880;37.542;2023-07-24T12:52:03;3.33;;;0.90;;
70951;SDS011;69214;55.880;37.542;2023-07-24T12:54:31;2.92;;;0.75;;
70951;SDS011;69214;55.880;37.542;2023-07-24T12:56:57;3.22;;;0.93;;
70951;SDS011;69214;55.880;37.542;2023-07-24T12:59:23;3.90;;;0.80;;
70951;SDS011;69214;55.880;37.542;2023-07-24T13:01:49;2.93;;;0.93;;
70951;SDS011;69214;55.880;37.542;2023-07-24T13:04:15;4.28;;;0.80;;
70951;SDS011;69214;55.880;37.542;2023-07-24T13:06:40;3.97;;;1.13;;
70951;SDS011;69214;55.880;37.542;2023-07-24T13:09:07;3.00;;;0.93;;
70951;SDS011;69214;55.880;37.542;2023-07-24T13:11:34;4.45;;;0.70;;
70951;SDS011;69214;55.880;37.542;2023-07-24T13:14:00;3.28;;;0.90;;
70951;SDS011;69214;55.880;37.542;2023-07-24T13:16:26;5.13;;;0.97;;
70951;SDS011;69214;55.880;37.542;2023-07-24T13:18:53;4.07;;;1.08;;
70951;SDS011;69214;55.880;37.542;2023-07-24T13:21:19;2.85;;;0.90;;
70951;SDS011;69214;55.880;37.542;2023-07-24T13:23:45;3.33;;;0.88;;
70951;SDS011;69214;55.880;37.542;2023-07-24T13:26:11;2.60;;;0.70;;
70951;SDS011;69214;55.880;37.542;2023-07-24T13:28:41;2.80;;;0.88;;
70951;SDS011;69214;55.880;37.542;2023-07-24T13:31:19;2.53;;;1.00;;
70951;SDS011;69214;55.880;37.542;2023-07-24T13:33:46;2.85;;;1.05;;
70951;SDS011;69214;55.880;37.542;2023-07-24T13:36:12;3.85;;;1.20;;
70951;SDS011;69214;55.880;37.542;2023-07-24T13:38:38;3.33;;;1.00;;
70951;SDS011;69214;55.880;37.542;2023-07-24T13:41:05;2.67;;;0.77;;
70951;SDS011;69214;55.880;37.542;2023-07-24T13:43:31;3.13;;;0.75;;
70951;SDS011;69214;55.880;37.542;2023-07-24T13:45:58;2.35;;;0.70;;
70951;SDS011;69214;55.880;37.542;2023-07-24T13:48:26;2.90;;;1.00;;
70951;SDS011;69214;55.880;37.542;2023-07-24T13:50:53;2.83;;;0.80;;
70951;SDS011;69214;55.880;37.542;2023-07-24T13:53:20;3.40;;;0.95;;
70951;SDS011;69214;55.880;37.542;2023-07-24T13:55:47;3.00;;;0.93;;
70951;SDS011;69214;55.880;37.542;2023-07-24T13:58:13;2.95;;;1.10;;
70951;SDS011;69214;55.880;37.542;2023-07-24T14:00:38;2.83;;;0.90;;
70951;SDS011;69214;55.880;37.542;2023-07-24T14:03:04;3.15;;;1.10;;
70951;SDS011;69214;55.880;37.542;2023-07-24T14:05:30;2.08;;;0.65;;
70951;SDS011;69214;55.880;37.542;2023-07-24T14:07:56;2.80;;;1.07;;
70951;SDS011;69214;55.880;37.542;2023-07-24T14:10:22;3.22;;;0.93;;
70951;SDS011;69214;55.880;37.542;2023-07-24T14:12:48;3.20;;;0.87;;
70951;SDS011;69214;55.880;37.542;2023-07-24T14:15:13;2.63;;;1.10;;
70951;SDS011;69214;55.880;37.542;2023-07-24T14:17:39;3.78;;;1.17;;
70951;SDS011;69214;55.880;37.542;2023-07-24T14:20:06;4.13;;;1.10;;
70951;SDS011;69214;55.880;37.542;2023-07-24T14:22:32;3.95;;;1.30;;
70951;SDS011;69214;55.880;37.542;2023-07-24T14:24:58;3.83;;;1.00;;
70951;SDS011;69214;55.880;37.542;2023-07-24T14:27:24;3.33;;;1.00;;
70951;SDS011;69214;55.880;37.542;2023-07-24T14:29:50;2.88;;;1.00;;
70951;SDS011;69214;55.880;37.542;2023-07-24T14:32:16;3.27;;;1.07;;
70951;SDS011;69214;55.880;37.542;2023-07-24T14:34:42;3.83;;;1.20;;
70951;SDS011;69214;55.880;37.542;2023-07-24T14:37:07;3.42;;;0.95;;
70951;SDS011;69214;55.880;37.542;2023-07-24T14:39:33;4.20;;;1.30;;
70951;SDS011;69214;55.880;37.542;2023-07-24T14:41:59;4.25;;;1.08;;
70951;SDS011;69214;55.880;37.542;2023-07-24T14:44:26;2.78;;;0.90;;